Aérodrome :
LOGIN :

S'inscrire | Disclaimer

   EN    FR    IT 

 










Légende :    VFR   VFR Marginal   IFR   IFR Intensif   IFR Très Intensif
Visi : 
Plafond : 
>= 8 km
>= 3000ft
5 à 8 km
1000 à 3000 ft
1500m à 5 km
500 à 1000 ft
800 à 1500m
200 à 500 ft
< 800m
< 200 ft
Symboles :   Orages  Brouillard  Fortes neiges  Fortes précipitations  Vent > 20 kt
SIGMETs :   Divers  Orages  Givrage  Turbulence  Onde Orograph.  Cendres Volcan.






- Altitude de l'aérodrome : 1682 ft
- Code IATA : VIT


LEVT - Vitoria Gasteiz

DERNIER METAR :
  • 241330Z 23010KT 200V260 9999 FEW020 09/06 Q1020

METARs EXPIRÉS :
  • 241300Z 23008KT 210V280 9999 FEW020 08/05 Q1020
  • 241230Z 24006KT 210V270 9999 FEW019 08/05 Q1020
  • 241200Z 24005KT 9999 FEW020 07/05 Q1021
  • 241130Z 23005KT 200V270 9999 SCT020 07/05 Q1021
  • 241100Z 23005KT 200V260 9999 SCT020 07/05 Q1021

TAF TAF LEVT
Valide du 24 à 12h jusqu'au 25 à 12h UTC


241100Z 2412/2512 23005KT 9999 SCT020 TX09/2415Z TNM00/2506Z
PROB40
TEMPO 2500/2510 0800 FG VV001
PROB40
TEMPO 2503/2509 0350 FZFG BKN002



MET'MAP, la Météo Aéronautique d'un coup d'oeil ! - Copyright ORBIFLY Décembre 2007 - Disclaimer

ORBIFLY MET'MAP TEAM :

Programmation & Développement : Alexandra Zaïnal
Sur une idée originale de : Baudouin d'Aumeries
Assistance à la programmation : Marc-Olivier Méhu
Soutien technique & logistique : Manuel Goepfert

Contact : metmap@orbifly.com




SOURCES & CREDITS :

   NOAA